Relevés horaires La Dôle (Suisse)


Relevés horaires à La Dôle - Lundi 31 Déc. 2007
Heure UTC1 Température [°C] Vent [km/h] Hum. [%] Pres.4 [hPa] Visi. [Km] Nébu. [octa] Préc.5 [mm] Cond.
2m. Res. Ros. Dir.2 Vit. Moy. Raf.3
23:00 -6.9 -17.7 -11.2 E 51.9 55.6 68.5 71 850(-1.1/3h) -- -- -- --
22:00 -6.9 -17.8 -11.1 E 53.7 53.7 72.2 72 850(-1.2/3h) -- -- -- --
21:00 -6.7 -17.4 -10.8 E 51.9 53.7 72.2 72 850(-0.9/3h) -- -- -- --
20:00 -7.0 -17.8 -10.3 E 51.9 51.9 66.7 77 850(-0.9/3h) -- -- -- --
19:00 -7.0 -17.7 -9.8 E 50.0 51.9 66.7 80 850(-1.0/3h) -- -- -- --
18:00 -7.1 -17.7 -9.2 E 48.2 48.2 61.1 85 850(-1.0/3h) -- -- -- --
17:00 -6.9 -16.9 -8.4 E 42.6 44.4 55.6 89 850(-0.8/3h) -- -- -- --
16:00 -7.1 -15.4 -8.1 E 27.8 27.8 31.5 93 850(-0.4/3h) -- -- -- --
15:00 -6.1 -13.3 -6.9 E 22.2 37.0 46.3 94 850(-0.7/3h) -- -- -- --
14:00 -5.9 -12.4 -7.6 E 18.5 27.8 37.0 88 850(-0.7/3h) -- -- -- --
13:00 -5.8 -13.2 -7.3 E 24.1 33.3 44.4 89 850(-0.8/3h) -- -- -- --
12:00 -5.8 -13.5 -6.5 E 25.9 37.0 46.3 95 850(-0.2/3h) -- -- -- --
11:00 -5.5 -13.8 -6.3 ESE 31.5 37.0 46.3 94 850(0.2/3h) -- -- -- --
10:00 -5.9 -14.8 -7.1 E 35.2 35.2 44.4 91 850(0.4/3h) -- -- -- --
09:00 -6.5 -14.9 -7.3 E 29.6 31.5 37.0 94 850(0.5/3h) -- -- -- --
08:00 -7.1 -15.4 -7.9 E 27.8 27.8 35.2 94 850(0.3/3h) -- -- -- --
07:00 -7.3 -15.4 -7.5 E 25.9 27.8 35.2 98 850(0.2/3h) -- -- -- --
06:00 -7.3 -15.4 -8.0 E 25.9 38.9 46.3 95 850(0.2/3h) -- -- -- --
05:00 -6.8 -14.5 -7.8 ENE 24.1 24.1 29.6 93 850(0.2/3h) -- -- -- --
04:00 -6.4 -12.7 -9.7 NE 16.7 29.6 31.5 77 850(0.6/3h) -- -- -- --
03:00 -5.9 -13.1 -9.2 ENE 22.2 38.9 44.4 77 850(0.3/3h) -- -- -- --
02:00 -5.6 -14 -9.0 E 31.5 35.2 38.9 77 850(-0.1/3h) -- -- -- --
01:00 -6.2 -14.7 -8.2 E 31.5 37.0 42.6 86 850(-0.7/3h) -- -- -- --
00:00 -5.7 -14.5 -9.0 E 35.2 38.9 46.3 77 850(-0.9/3h) -- -- -- --

1 Coordinated Universal Time. Actuellement il est 09:00 locale et 07:00 UTC.

2 Le vent souffle depuis la direction indiquée vers la direction oposée.

3 Les rafales max. sont disponible 40 min après l'heure du relevé.

4 Pour les stations d'altitude (plus de 600m) le géopotentiel du niveau le plus proche de la pression obligatoire est indiqué.

5 Les stations disposant d'un diffuseur peuvent indiquer "trace". Cela signifie que des précipitations ont touchés le sol mais que la quantité est inférieure à 0.1 mm.

Copyright

Les données affichées sur cette page sont la propriété exclusive de Météo Suisse.

Récapitulatif de la journée
Température [°C] Vent [km/h] Ensoleillement4 [h] Precipitations totale5 [mm] Pression [Hpa]
Min1 Max.2 Moy.3 Max. Min Max.
-7.4 -5.3 38.5 72.2 5 h 0 min 0 850.0 850.0

1 Température minimale relevée entre 18:00 UTC la veille et 18:00 UTC le jour donné.

2 Température maximale relevée entre 06:00 UTC le jour donné et 06:00 UTC le lendemain.

3 Vent moyen de la journée basé sur les relevés horaires.

4 Ensoleillement en heures relevé entre 06:00 UTC la veille et 06:00 UTC le jour donné.

5 Précipitations totales tombées entre 06:00 UTC la jour donné et 06:00 UTC le lendemain.

Graphiques horaires